Time;durP1;ratioP1;P1;durP2;ratioP2;P2;SDS_P1;SDS_P2;PMS_P1;PMS_P2;Temp;Humidity;BMP_temperature;BMP_pressure;BME280_temperature;BME280_humidity;BME280_pressure;Samples;Min_cycle;Max_cycle;Signal;HPM_P1;HPM_P2
2024/02/24 00:00:28;;;;;;;4.60;2.42;;;;;;;;;;5907699;28;20415;-78
2024/02/24 00:03:19;;;;;;;5.00;1.88;;;;;;;;;;5909104;28;20121;-78
2024/02/24 00:06:12;;;;;;;2.90;1.88;;;;;;;;;;5908728;28;20056;-78
2024/02/24 00:09:03;;;;;;;3.50;3.05;;;;;;;;;;5908904;28;20060;-78
2024/02/24 00:11:54;;;;;;;1.42;1.10;;;;;;;;;;5908043;28;20045;-78
2024/02/24 00:14:45;;;;;;;2.08;1.80;;;;;;;;;;5924134;28;20395;-78
2024/02/24 00:17:38;;;;;;;3.15;2.63;;;;;;;;;;5908915;28;20473;-78
2024/02/24 00:20:29;;;;;;;1.98;1.25;;;;;;;;;;5923744;28;20511;-78
2024/02/24 00:23:22;;;;;;;6.40;1.73;;;;;;;;;;5907482;28;22366;-78
2024/02/24 00:26:13;;;;;;;2.53;2.33;;;;;;;;;;5907623;28;20058;-78
2024/02/24 00:29:03;;;;;;;9.00;2.42;;;;;;;;;;5907403;28;20127;-78
2024/02/24 00:31:54;;;;;;;2.15;1.67;;;;;;;;;;5909033;28;20052;-78
2024/02/24 00:34:45;;;;;;;3.58;1.63;;;;;;;;;;5907235;28;20370;-78
2024/02/24 00:37:36;;;;;;;4.30;2.20;;;;;;;;;;5908808;28;20044;-78
2024/02/24 00:40:27;;;;;;;2.85;2.05;;;;;;;;;;5923900;28;20051;-78
2024/02/24 00:43:18;;;;;;;9.73;2.25;;;;;;;;;;5911887;28;20410;-78
2024/02/24 00:46:08;;;;;;;1.58;1.48;;;;;;;;;;5911965;28;20056;-78
2024/02/24 00:48:59;;;;;;;3.13;1.85;;;;;;;;;;5928867;28;20052;-78
2024/02/24 00:51:50;;;;;;;2.25;1.90;;;;;;;;;;5928689;28;20041;-78
2024/02/24 00:54:41;;;;;;;1.30;1.20;;;;;;;;;;5928251;28;20036;-78
2024/02/24 00:57:32;;;;;;;1.30;0.95;;;;;;;;;;5928242;28;20170;-78
2024/02/24 01:00:23;;;;;;;3.10;1.50;;;;;;;;;;5912951;28;20045;-78
2024/02/24 01:03:14;;;;;;;6.88;2.15;;;;;;;;;;5892080;28;20059;-78
2024/02/24 01:06:05;;;;;;;3.22;1.40;;;;;;;;;;5871973;28;20087;-78
2024/02/24 01:08:56;;;;;;;3.33;1.20;;;;;;;;;;5888656;28;20115;-78
2024/02/24 01:11:46;;;;;;;3.22;1.58;;;;;;;;;;5888220;28;20073;-78
2024/02/24 01:14:37;;;;;;;1.48;1.30;;;;;;;;;;5888247;28;20406;-78
2024/02/24 01:17:29;;;;;;;4.15;1.88;;;;;;;;;;5887678;28;20049;-78
2024/02/24 01:20:20;;;;;;;3.30;1.52;;;;;;;;;;5887974;28;20045;-78
2024/02/24 01:23:11;;;;;;;1.60;1.40;;;;;;;;;;5887705;28;20056;-78
2024/02/24 01:26:02;;;;;;;2.92;1.55;;;;;;;;;;5887976;28;20087;-78
2024/02/24 01:28:53;;;;;;;0.98;0.57;;;;;;;;;;5904565;28;20045;-78
2024/02/24 01:31:44;;;;;;;1.20;1.10;;;;;;;;;;5887451;28;20056;-78
2024/02/24 01:34:35;;;;;;;1.67;1.45;;;;;;;;;;5889154;28;20047;-79
2024/02/24 01:37:26;;;;;;;1.52;1.35;;;;;;;;;;5888703;28;20041;-78
2024/02/24 01:40:17;;;;;;;6.65;2.28;;;;;;;;;;5888671;28;20052;-78
2024/02/24 01:43:27;;;;;;;2.05;1.10;;;;;;;;;;5887605;28;20045;-78
2024/02/24 01:46:18;;;;;;;2.40;1.35;;;;;;;;;;5887364;28;20053;-78
2024/02/24 01:49:09;;;;;;;1.00;0.90;;;;;;;;;;5887299;28;20060;-78
2024/02/24 01:52:00;;;;;;;0.85;0.68;;;;;;;;;;5887093;28;20072;-78
2024/02/24 01:54:58;;;;;;;0.90;0.82;;;;;;;;;;5888906;28;20037;-78
2024/02/24 01:57:50;;;;;;;2.35;1.25;;;;;;;;;;5887436;28;20045;-78
2024/02/24 02:00:41;;;;;;;3.13;1.73;;;;;;;;;;5887201;28;20049;-78
2024/02/24 02:03:33;;;;;;;1.50;1.00;;;;;;;;;;5903696;28;20470;-79
2024/02/24 02:06:28;;;;;;;1.45;1.00;;;;;;;;;;5870773;28;20126;-78
2024/02/24 02:09:19;;;;;;;2.47;1.40;;;;;;;;;;5887136;28;20048;-78
2024/02/24 02:12:10;;;;;;;1.08;0.95;;;;;;;;;;5870553;28;20056;-78
2024/02/24 02:15:03;;;;;;;0.98;0.90;;;;;;;;;;5886875;28;20128;-78
2024/02/24 02:17:54;;;;;;;1.25;1.17;;;;;;;;;;5887224;28;20390;-78
2024/02/24 02:20:48;;;;;;;1.02;0.90;;;;;;;;;;5886602;28;20474;-78
2024/02/24 02:23:39;;;;;;;0.90;0.82;;;;;;;;;;5887149;28;20124;-78
2024/02/24 02:26:30;;;;;;;3.08;1.08;;;;;;;;;;5886451;28;20041;-78
2024/02/24 02:29:21;;;;;;;1.15;0.77;;;;;;;;;;5886734;28;20402;-78
2024/02/24 02:32:12;;;;;;;1.13;1.00;;;;;;;;;;5886534;28;20623;-78
2024/02/24 02:35:04;;;;;;;1.30;1.20;;;;;;;;;;5886230;28;20140;-78
2024/02/24 02:37:55;;;;;;;1.45;0.88;;;;;;;;;;5903376;28;20045;-78
2024/02/24 02:40:46;;;;;;;1.73;0.80;;;;;;;;;;5887599;28;20041;-78
2024/02/24 02:43:37;;;;;;;1.30;1.20;;;;;;;;;;5886311;28;20495;-78
2024/02/24 02:46:28;;;;;;;0.93;0.90;;;;;;;;;;5902640;28;20061;-78
2024/02/24 02:49:19;;;;;;;1.00;0.90;;;;;;;;;;5886218;28;20486;-78
2024/02/24 02:52:10;;;;;;;4.07;1.08;;;;;;;;;;5886343;28;20132;-78
2024/02/24 02:55:01;;;;;;;2.08;1.48;;;;;;;;;;5887341;28;20171;-78
2024/02/24 02:57:52;;;;;;;1.05;0.93;;;;;;;;;;5886285;28;20060;-78
2024/02/24 03:00:45;;;;;;;1.40;1.30;;;;;;;;;;5885717;28;20057;-78
2024/02/24 03:03:36;;;;;;;1.33;1.02;;;;;;;;;;5886371;28;20449;-78
2024/02/24 03:06:27;;;;;;;1.25;1.15;;;;;;;;;;5885584;28;20658;-78
2024/02/24 03:09:17;;;;;;;1.60;1.20;;;;;;;;;;5885348;28;20128;-78
2024/02/24 03:12:08;;;;;;;1.33;1.23;;;;;;;;;;5902289;28;20045;-78
2024/02/24 03:14:59;;;;;;;1.02;0.93;;;;;;;;;;5885927;28;20049;-78
2024/02/24 03:17:50;;;;;;;1.00;0.93;;;;;;;;;;5886905;28;20036;-78
2024/02/24 03:20:41;;;;;;;1.33;1.23;;;;;;;;;;5868962;28;20143;-78
2024/02/24 03:23:32;;;;;;;1.38;0.88;;;;;;;;;;5885379;28;20411;-78
2024/02/24 03:26:23;;;;;;;2.00;1.65;;;;;;;;;;5886502;28;20148;-78
2024/02/24 03:29:14;;;;;;;1.27;1.05;;;;;;;;;;5885370;28;20549;-78
2024/02/24 03:32:06;;;;;;;1.38;1.27;;;;;;;;;;5884813;28;20045;-78
2024/02/24 03:34:57;;;;;;;1.30;1.20;;;;;;;;;;5885510;28;20107;-78
2024/02/24 03:37:51;;;;;;;1.23;1.05;;;;;;;;;;5886181;28;20044;-78
2024/02/24 03:40:42;;;;;;;0.73;0.73;;;;;;;;;;5868669;28;20546;-78
2024/02/24 03:43:33;;;;;;;1.02;0.98;;;;;;;;;;5868438;28;20399;-78
2024/02/24 03:46:24;;;;;;;0.73;0.73;;;;;;;;;;5868157;28;20102;-78
2024/02/24 03:49:15;;;;;;;2.22;1.60;;;;;;;;;;5886331;28;20852;-78
2024/02/24 03:52:06;;;;;;;1.00;1.00;;;;;;;;;;5868286;28;20045;-78
2024/02/24 03:54:57;;;;;;;1.67;1.42;;;;;;;;;;5885308;28;20041;-78
2024/02/24 03:57:48;;;;;;;1.58;1.10;;;;;;;;;;5884350;28;20080;-78
2024/02/24 04:00:39;;;;;;;0.68;0.68;;;;;;;;;;5884638;28;20044;-78
2024/02/24 04:03:30;;;;;;;5.40;1.58;;;;;;;;;;5884601;28;20041;-78
2024/02/24 04:06:21;;;;;;;1.30;1.02;;;;;;;;;;5886004;28;20053;-78
2024/02/24 04:09:13;;;;;;;0.82;0.70;;;;;;;;;;5884759;28;20055;-78
2024/02/24 04:12:04;;;;;;;1.20;1.10;;;;;;;;;;5884407;28;20049;-78
2024/02/24 04:14:55;;;;;;;2.88;1.48;;;;;;;;;;5868203;28;20060;-78
2024/02/24 04:17:49;;;;;;;1.13;1.02;;;;;;;;;;5884215;28;20052;-78
2024/02/24 04:20:41;;;;;;;1.17;1.00;;;;;;;;;;5884378;28;20052;-78
2024/02/24 04:23:32;;;;;;;0.60;0.60;;;;;;;;;;5885667;28;20118;-78
2024/02/24 04:26:22;;;;;;;0.77;0.77;;;;;;;;;;5885517;28;20418;-78
2024/02/24 04:29:13;;;;;;;0.88;0.88;;;;;;;;;;5900815;28;20052;-78
2024/02/24 04:32:04;;;;;;;0.85;0.82;;;;;;;;;;5867734;28;20083;-78
2024/02/24 04:34:55;;;;;;;1.20;1.10;;;;;;;;;;5884657;28;20521;-78
2024/02/24 04:37:46;;;;;;;0.85;0.85;;;;;;;;;;5884598;28;20051;-78
2024/02/24 04:40:38;;;;;;;0.63;0.63;;;;;;;;;;5884472;28;20037;-78
2024/02/24 04:43:28;;;;;;;1.05;0.85;;;;;;;;;;5884070;28;20049;-78
2024/02/24 04:46:22;;;;;;;0.82;0.60;;;;;;;;;;5884164;28;20056;-78
2024/02/24 04:49:13;;;;;;;1.00;0.80;;;;;;;;;;5884316;28;20477;-79
2024/02/24 04:52:04;;;;;;;1.17;0.85;;;;;;;;;;5884223;28;20056;-78
2024/02/24 04:54:55;;;;;;;3.45;0.90;;;;;;;;;;5868232;28;20044;-78
2024/02/24 04:57:46;;;;;;;0.93;0.80;;;;;;;;;;5883993;28;20049;-79
2024/02/24 05:00:37;;;;;;;3.65;0.88;;;;;;;;;;5883881;28;20049;-79
2024/02/24 05:03:28;;;;;;;0.43;0.43;;;;;;;;;;5900161;28;20052;-79
2024/02/24 05:06:19;;;;;;;1.42;0.70;;;;;;;;;;5883922;28;20041;-79
2024/02/24 05:09:11;;;;;;;0.82;0.75;;;;;;;;;;5884054;28;20103;-79
2024/02/24 05:12:03;;;;;;;0.68;0.63;;;;;;;;;;5884180;28;20620;-79
2024/02/24 05:14:54;;;;;;;0.80;0.80;;;;;;;;;;5884425;28;20529;-79
2024/02/24 05:17:45;;;;;;;1.85;1.13;;;;;;;;;;5883572;28;20056;-79
2024/02/24 05:20:36;;;;;;;0.98;0.90;;;;;;;;;;5884905;28;20118;-79
2024/02/24 05:23:27;;;;;;;1.95;1.13;;;;;;;;;;5884154;28;20103;-79
2024/02/24 05:26:28;;;;;;;0.40;0.30;;;;;;;;;;5883975;28;20132;-79
2024/02/24 05:29:19;;;;;;;0.20;0.20;;;;;;;;;;5889132;28;20126;-79
2024/02/24 05:32:10;;;;;;;1.05;0.90;;;;;;;;;;5889501;28;20078;-79
2024/02/24 05:35:01;;;;;;;0.57;0.57;;;;;;;;;;5888256;28;20052;-79
2024/02/24 05:37:51;;;;;;;0.38;0.35;;;;;;;;;;5888177;28;20052;-79
2024/02/24 05:40:43;;;;;;;0.57;0.57;;;;;;;;;;5889278;28;20041;-78
2024/02/24 05:43:34;;;;;;;0.20;0.20;;;;;;;;;;5887977;28;20070;-79
2024/02/24 05:46:24;;;;;;;0.20;0.20;;;;;;;;;;5887583;28;20052;-79
2024/02/24 05:49:15;;;;;;;0.45;0.45;;;;;;;;;;5887540;28;20202;-78
2024/02/24 05:52:06;;;;;;;0.38;0.28;;;;;;;;;;5887409;28;20132;-78
2024/02/24 05:54:57;;;;;;;0.20;0.15;;;;;;;;;;5887946;28;20041;-79
2024/02/24 05:57:48;;;;;;;0.57;0.50;;;;;;;;;;5887325;28;20498;-79
2024/02/24 06:00:39;;;;;;;0.75;0.65;;;;;;;;;;5888673;28;20045;-79
2024/02/24 06:03:30;;;;;;;0.60;0.30;;;;;;;;;;5888880;28;20041;-79
2024/02/24 06:06:21;;;;;;;0.75;0.70;;;;;;;;;;5889042;28;20045;-79
2024/02/24 06:09:12;;;;;;;0.40;0.40;;;;;;;;;;5887179;28;20045;-79
2024/02/24 06:12:04;;;;;;;0.30;0.30;;;;;;;;;;5887221;28;20056;-79
2024/02/24 06:14:55;;;;;;;1.23;0.63;;;;;;;;;;5888057;28;20172;-79
2024/02/24 06:17:46;;;;;;;0.52;0.52;;;;;;;;;;5888470;28;20040;-79
2024/02/24 06:20:37;;;;;;;0.32;0.30;;;;;;;;;;5888526;28;20147;-79
2024/02/24 06:23:28;;;;;;;1.60;0.77;;;;;;;;;;5903567;28;20052;-79
2024/02/24 06:26:19;;;;;;;0.77;0.75;;;;;;;;;;5887075;28;20049;-79
2024/02/24 06:29:11;;;;;;;0.38;0.38;;;;;;;;;;5887111;28;20155;-79
2024/02/24 06:32:03;;;;;;;0.30;0.30;;;;;;;;;;5903650;28;20126;-79
2024/02/24 06:34:54;;;;;;;0.50;0.50;;;;;;;;;;5888484;28;20426;-79
2024/02/24 06:37:45;;;;;;;0.30;0.30;;;;;;;;;;5886288;28;20437;-78
2024/02/24 06:40:35;;;;;;;0.30;0.30;;;;;;;;;;5885402;28;20048;-79
2024/02/24 06:43:35;;;;;;;1.95;0.75;;;;;;;;;;5886614;28;20048;-79
2024/02/24 06:46:26;;;;;;;0.70;0.57;;;;;;;;;;5886315;28;20040;-79
2024/02/24 06:49:17;;;;;;;2.63;0.82;;;;;;;;;;5886228;28;20061;-79
2024/02/24 06:52:08;;;;;;;1.02;0.95;;;;;;;;;;5885916;28;20131;-79
2024/02/24 06:55:00;;;;;;;1.25;1.00;;;;;;;;;;5886751;28;20052;-79
2024/02/24 06:57:51;;;;;;;1.33;1.02;;;;;;;;;;5886174;28;20056;-79
2024/02/24 07:00:42;;;;;;;0.90;0.80;;;;;;;;;;5886137;28;20055;-79
2024/02/24 07:03:33;;;;;;;2.35;1.83;;;;;;;;;;5886133;28;20417;-79
2024/02/24 07:06:24;;;;;;;1.05;0.93;;;;;;;;;;5886060;28;20041;-79
2024/02/24 07:09:19;;;;;;;0.75;0.63;;;;;;;;;;5886229;28;20048;-79
2024/02/24 07:12:10;;;;;;;1.55;0.45;;;;;;;;;;5902442;28;20136;-79
2024/02/24 07:15:01;;;;;;;3.60;1.15;;;;;;;;;;5886244;28;20041;-79
2024/02/24 07:17:52;;;;;;;0.95;0.85;;;;;;;;;;5887198;28;20041;-79
2024/02/24 07:20:44;;;;;;;1.65;1.50;;;;;;;;;;5885360;28;20040;-79
2024/02/24 07:23:35;;;;;;;1.70;1.30;;;;;;;;;;5885442;28;20449;-78
2024/02/24 07:26:26;;;;;;;2.53;1.15;;;;;;;;;;5885225;28;20134;-79
2024/02/24 07:29:17;;;;;;;4.63;0.93;;;;;;;;;;5902144;28;20048;-79
2024/02/24 07:32:08;;;;;;;8.00;1.77;;;;;;;;;;5886638;28;20178;-78
2024/02/24 07:35:00;;;;;;;3.28;1.65;;;;;;;;;;5885796;28;20041;-78
2024/02/24 07:37:51;;;;;;;2.03;1.80;;;;;;;;;;5885765;28;20530;-78
2024/02/24 07:40:42;;;;;;;2.38;1.20;;;;;;;;;;5884882;28;20048;-77
2024/02/24 07:43:33;;;;;;;1.17;1.02;;;;;;;;;;5868434;28;20127;-77
2024/02/24 07:46:31;;;;;;;1.08;1.00;;;;;;;;;;5884820;28;20053;-77
2024/02/24 07:49:21;;;;;;;2.53;1.98;;;;;;;;;;5885033;28;20045;-77
2024/02/24 07:52:12;;;;;;;0.95;0.93;;;;;;;;;;5884603;28;20417;-77
2024/02/24 07:55:04;;;;;;;0.95;0.73;;;;;;;;;;5884957;28;20045;-77
2024/02/24 07:57:55;;;;;;;1.25;1.15;;;;;;;;;;5885028;28;20041;-77
2024/02/24 08:00:45;;;;;;;2.78;2.00;;;;;;;;;;5886450;28;20528;-76
2024/02/24 08:03:44;;;;;;;1.50;1.40;;;;;;;;;;5884758;28;20142;-77
2024/02/24 08:06:35;;;;;;;1.58;1.25;;;;;;;;;;5868427;28;20056;-77
2024/02/24 08:09:26;;;;;;;1.67;1.52;;;;;;;;;;5886212;28;20052;-77
2024/02/24 08:12:17;;;;;;;3.42;2.65;;;;;;;;;;5886082;28;20087;-77
2024/02/24 08:15:08;;;;;;;2.75;2.55;;;;;;;;;;5885937;28;20064;-77
2024/02/24 08:17:59;;;;;;;23.27;16.40;;;;;;;;;;5885109;28;20075;-77
2024/02/24 08:20:50;;;;;;;23.63;13.77;;;;;;;;;;5901178;28;20041;-77
2024/02/24 08:23:41;;;;;;;8.45;4.28;;;;;;;;;;5884649;28;20044;-77
2024/02/24 08:26:32;;;;;;;8.35;3.67;;;;;;;;;;5885695;28;20061;-77
2024/02/24 08:29:22;;;;;;;3.05;2.55;;;;;;;;;;5884351;28;20081;-77
2024/02/24 08:32:13;;;;;;;1.98;1.77;;;;;;;;;;5900976;28;20126;-77
2024/02/24 08:35:05;;;;;;;2.33;1.40;;;;;;;;;;5884311;28;20055;-77
2024/02/24 08:37:56;;;;;;;3.35;1.75;;;;;;;;;;5884867;28;20051;-76
2024/02/24 08:40:47;;;;;;;1.60;1.50;;;;;;;;;;5885854;28;20044;-77
2024/02/24 08:43:37;;;;;;;4.40;2.25;;;;;;;;;;5885735;28;20040;-77
2024/02/24 08:46:29;;;;;;;3.45;2.70;;;;;;;;;;5885625;28;20478;-77
2024/02/24 08:49:20;;;;;;;5.13;2.63;;;;;;;;;;5885707;28;20044;-77
2024/02/24 08:52:11;;;;;;;1.70;1.27;;;;;;;;;;5884134;28;20049;-77
2024/02/24 08:55:02;;;;;;;3.22;2.50;;;;;;;;;;5885913;28;20049;-78
2024/02/24 08:57:53;;;;;;;2.38;1.83;;;;;;;;;;5884760;28;20052;-77
2024/02/24 09:00:44;;;;;;;3.65;3.22;;;;;;;;;;5884863;28;20147;-77
2024/02/24 09:03:35;;;;;;;2.80;2.60;;;;;;;;;;5888535;28;20084;-78
2024/02/24 09:06:26;;;;;;;3.47;2.85;;;;;;;;;;5890330;28;20045;-77
2024/02/24 09:09:17;;;;;;;3.83;3.40;;;;;;;;;;5904882;28;20609;-78
2024/02/24 09:12:08;;;;;;;4.03;2.80;;;;;;;;;;5888696;28;20064;-77
2024/02/24 09:14:59;;;;;;;8.93;5.07;;;;;;;;;;5888975;28;20045;-77
2024/02/24 09:17:50;;;;;;;13.60;3.95;;;;;;;;;;5889549;28;20509;-77
2024/02/24 09:20:41;;;;;;;5.28;3.80;;;;;;;;;;5889727;28;20049;-77
2024/02/24 09:23:32;;;;;;;6.10;3.33;;;;;;;;;;5889449;28;20049;-77
2024/02/24 09:26:24;;;;;;;5.55;4.00;;;;;;;;;;5888217;28;20044;-77
2024/02/24 09:29:15;;;;;;;5.63;3.80;;;;;;;;;;5887762;28;20049;-77
2024/02/24 09:32:06;;;;;;;4.30;3.90;;;;;;;;;;5889424;28;20060;-77
2024/02/24 09:34:57;;;;;;;5.32;4.15;;;;;;;;;;5904979;28;20044;-77
2024/02/24 09:37:48;;;;;;;4.72;3.50;;;;;;;;;;5887638;28;20052;-77
2024/02/24 09:40:39;;;;;;;3.28;2.97;;;;;;;;;;5887773;28;20052;-77
2024/02/24 09:43:30;;;;;;;3.47;2.85;;;;;;;;;;5887357;28;20409;-77
2024/02/24 09:46:21;;;;;;;3.30;2.97;;;;;;;;;;5887569;28;20084;-77
2024/02/24 09:49:13;;;;;;;3.38;3.08;;;;;;;;;;5887910;28;20052;-77
2024/02/24 09:52:05;;;;;;;2.95;2.75;;;;;;;;;;5887865;28;20061;-77
2024/02/24 09:54:57;;;;;;;2.22;1.83;;;;;;;;;;5887851;28;20098;-77
2024/02/24 09:57:48;;;;;;;3.33;2.92;;;;;;;;;;5887359;28;20045;-77
2024/02/24 10:00:39;;;;;;;4.03;3.65;;;;;;;;;;5903912;28;20498;-77
2024/02/24 10:03:30;;;;;;;3.05;2.75;;;;;;;;;;5887342;28;20174;-77
2024/02/24 10:06:21;;;;;;;4.72;4.32;;;;;;;;;;5887256;28;20041;-77
2024/02/24 10:09:12;;;;;;;6.68;4.40;;;;;;;;;;5887197;28;20076;-77
2024/02/24 10:12:05;;;;;;;3.95;3.53;;;;;;;;;;5888321;28;20155;-77
2024/02/24 10:14:56;;;;;;;8.38;6.13;;;;;;;;;;5870978;28;20131;-78
2024/02/24 10:17:47;;;;;;;16.67;11.32;;;;;;;;;;5903461;28;20418;-77
2024/02/24 10:20:39;;;;;;;14.57;9.00;;;;;;;;;;5903320;28;20040;-77
2024/02/24 10:23:31;;;;;;;8.55;5.68;;;;;;;;;;5888536;28;20414;-77
2024/02/24 10:26:23;;;;;;;2.65;1.85;;;;;;;;;;5887676;28;20175;-77
2024/02/24 10:29:15;;;;;;;5.97;4.65;;;;;;;;;;5903829;28;20049;-77
2024/02/24 10:32:07;;;;;;;3.47;3.10;;;;;;;;;;5888139;28;20056;-77
2024/02/24 10:34:58;;;;;;;8.57;3.97;;;;;;;;;;5887716;28;20136;-77
2024/02/24 10:37:51;;;;;;;3.55;3.00;;;;;;;;;;5885973;28;20047;-76
2024/02/24 10:41:02;;;;;;;3.55;2.58;;;;;;;;;;5887513;28;20131;-78
2024/02/24 10:43:53;;;;;;;2.65;2.42;;;;;;;;;;5887249;28;20048;-77
2024/02/24 10:47:01;;;;;;;3.35;2.38;;;;;;;;;;5888013;28;20409;-77
2024/02/24 10:49:52;;;;;;;3.05;1.95;;;;;;;;;;5886572;28;20047;-77
2024/02/24 10:52:44;;;;;;;4.60;2.65;;;;;;;;;;5902750;28;20443;-77
2024/02/24 10:55:37;;;;;;;33.50;2.17;;;;;;;;;;5886147;28;20067;-77
2024/02/24 10:58:28;;;;;;;4.15;2.03;;;;;;;;;;5885946;28;20060;-77
2024/02/24 11:01:20;;;;;;;4.80;3.17;;;;;;;;;;5887197;28;20056;-78
2024/02/24 11:04:16;;;;;;;1.70;1.60;;;;;;;;;;5886009;28;20122;-78
2024/02/24 11:07:18;;;;;;;1.33;1.08;;;;;;;;;;5885918;28;20084;-78
2024/02/24 11:10:20;;;;;;;1.52;1.20;;;;;;;;;;5886021;28;20072;-77
2024/02/24 11:13:12;;;;;;;2.72;1.95;;;;;;;;;;5887389;28;20049;-77
2024/02/24 11:16:07;;;;;;;1.73;1.55;;;;;;;;;;5885778;28;20149;-78
2024/02/24 11:18:58;;;;;;;0.90;0.85;;;;;;;;;;5870447;28;20047;-77
2024/02/24 11:22:02;;;;;;;2.78;1.88;;;;;;;;;;5885377;28;20175;-78
2024/02/24 11:25:03;;;;;;;1.00;0.85;;;;;;;;;;5884417;28;20049;-78
2024/02/24 11:27:56;;;;;;;1.85;1.30;;;;;;;;;;5868621;28;20559;-79
2024/02/24 11:30:52;;;;;;;2.20;1.35;;;;;;;;;;5884878;28;20151;-78
2024/02/24 11:33:43;;;;;;;2.53;1.63;;;;;;;;;;5884359;28;20056;-79
2024/02/24 11:36:39;;;;;;;2.58;1.83;;;;;;;;;;5884187;28;20406;-79
2024/02/24 11:39:30;;;;;;;1.95;1.60;;;;;;;;;;5884327;28;20123;-79
2024/02/24 11:42:23;;;;;;;3.58;3.20;;;;;;;;;;5884290;28;20053;-79
2024/02/24 11:45:15;;;;;;;3.30;2.17;;;;;;;;;;5884014;28;20053;-79
2024/02/24 11:48:06;;;;;;;1.45;1.35;;;;;;;;;;5884146;28;20049;-79
2024/02/24 11:50:57;;;;;;;2.58;2.00;;;;;;;;;;5884388;28;20052;-79
2024/02/24 11:53:48;;;;;;;3.55;2.42;;;;;;;;;;5885430;28;20159;-80
2024/02/24 11:56:40;;;;;;;6.60;2.80;;;;;;;;;;5883656;28;20052;-79
2024/02/24 11:59:30;;;;;;;2.15;1.73;;;;;;;;;;5884906;28;20116;-79
2024/02/24 12:02:21;;;;;;;3.22;2.38;;;;;;;;;;5885503;28;20098;-79
2024/02/24 12:05:14;;;;;;;2.75;1.67;;;;;;;;;;5885586;28;20515;-79
2024/02/24 12:08:10;;;;;;;3.00;1.83;;;;;;;;;;5884540;28;20445;-79
2024/02/24 12:11:01;;;;;;;2.17;1.73;;;;;;;;;;5884719;28;20048;-79
2024/02/24 12:13:53;;;;;;;4.43;1.52;;;;;;;;;;5884463;28;20045;-80
2024/02/24 12:16:44;;;;;;;3.28;1.58;;;;;;;;;;5884950;28;20075;-79
2024/02/24 12:19:37;;;;;;;2.22;1.85;;;;;;;;;;5883272;28;20391;-81
2024/02/24 12:22:28;;;;;;;2.55;1.80;;;;;;;;;;5885081;28;20667;-80
2024/02/24 12:25:21;;;;;;;2.22;1.60;;;;;;;;;;5883622;28;20048;-79
2024/02/24 12:28:11;;;;;;;4.35;2.85;;;;;;;;;;5867137;28;20041;-79
2024/02/24 12:31:07;;;;;;;4.97;2.60;;;;;;;;;;5883508;28;20053;-79
2024/02/24 12:33:58;;;;;;;3.42;2.13;;;;;;;;;;5883957;28;20045;-80
2024/02/24 12:36:58;;;;;;;3.63;2.30;;;;;;;;;;5886694;28;20041;-80
2024/02/24 12:39:49;;;;;;;4.13;2.03;;;;;;;;;;5888230;28;20037;-80
2024/02/24 12:42:40;;;;;;;6.88;1.65;;;;;;;;;;5904993;28;20045;-79
2024/02/24 12:45:31;;;;;;;2.80;1.70;;;;;;;;;;5889605;28;20040;-79
2024/02/24 12:48:22;;;;;;;2.50;1.25;;;;;;;;;;5888555;28;20431;-79
2024/02/24 12:51:13;;;;;;;2.67;1.58;;;;;;;;;;5905255;28;20072;-79
2024/02/24 12:54:05;;;;;;;3.47;1.95;;;;;;;;;;5887983;28;20053;-79
2024/02/24 12:56:55;;;;;;;5.60;1.20;;;;;;;;;;5888654;28;20045;-79
2024/02/24 12:59:46;;;;;;;4.70;1.33;;;;;;;;;;5889526;28;20078;-79
2024/02/24 13:02:38;;;;;;;5.85;2.30;;;;;;;;;;5888849;28;20080;-78
2024/02/24 13:05:29;;;;;;;4.55;1.92;;;;;;;;;;5872194;28;20167;-79
2024/02/24 13:08:20;;;;;;;1.88;1.73;;;;;;;;;;5889570;28;20057;-79
2024/02/24 13:11:11;;;;;;;7.13;2.90;;;;;;;;;;5888457;28;20041;-79
2024/02/24 13:14:02;;;;;;;4.40;1.90;;;;;;;;;;5904240;28;20049;-79
2024/02/24 13:16:53;;;;;;;4.68;1.85;;;;;;;;;;5888176;28;20055;-79
2024/02/24 13:19:44;;;;;;;5.32;2.72;;;;;;;;;;5903676;28;20506;-79
2024/02/24 13:22:40;;;;;;;7.35;5.03;;;;;;;;;;5870714;28;20047;-79
2024/02/24 13:25:31;;;;;;;3.75;2.75;;;;;;;;;;5887640;28;20044;-79
2024/02/24 13:28:21;;;;;;;2.78;1.38;;;;;;;;;;5887352;28;20049;-79
2024/02/24 13:31:12;;;;;;;3.65;1.77;;;;;;;;;;5888134;28;20052;-79
2024/02/24 13:34:03;;;;;;;6.47;3.13;;;;;;;;;;5887150;28;20060;-79
2024/02/24 13:36:54;;;;;;;7.10;4.30;;;;;;;;;;5903912;28;20049;-79
2024/02/24 13:39:46;;;;;;;7.55;4.47;;;;;;;;;;5870024;28;20048;-79
2024/02/24 13:42:38;;;;;;;3.90;2.78;;;;;;;;;;5886815;28;20150;-79
2024/02/24 13:45:29;;;;;;;4.18;2.88;;;;;;;;;;5886826;28;20075;-79
2024/02/24 13:48:19;;;;;;;2.95;1.88;;;;;;;;;;5886135;28;20213;-79
2024/02/24 13:51:10;;;;;;;3.05;2.42;;;;;;;;;;5887429;28;20056;-79
2024/02/24 13:54:01;;;;;;;5.68;2.83;;;;;;;;;;5888553;28;20068;-79
2024/02/24 13:56:52;;;;;;;1.17;1.05;;;;;;;;;;5887705;28;20045;-79
2024/02/24 13:59:43;;;;;;;5.18;3.25;;;;;;;;;;5886472;28;20075;-80
2024/02/24 14:02:34;;;;;;;7.30;4.95;;;;;;;;;;5869873;28;20516;-80
2024/02/24 14:05:25;;;;;;;11.30;7.35;;;;;;;;;;5886152;28;20490;-79
2024/02/24 14:08:16;;;;;;;6.57;3.63;;;;;;;;;;5886266;28;20175;-79
2024/02/24 14:11:07;;;;;;;11.65;6.63;;;;;;;;;;5886159;28;20413;-79
2024/02/24 14:13:58;;;;;;;13.18;7.00;;;;;;;;;;5888164;28;20048;-79
2024/02/24 14:16:49;;;;;;;8.85;5.70;;;;;;;;;;5886656;28;20048;-79
2024/02/24 14:19:39;;;;;;;4.35;2.95;;;;;;;;;;5869826;28;20052;-79
2024/02/24 14:22:30;;;;;;;5.82;2.35;;;;;;;;;;5886251;28;20049;-79
2024/02/24 14:25:21;;;;;;;10.52;5.35;;;;;;;;;;5869863;28;20738;-79
2024/02/24 14:28:13;;;;;;;5.18;3.25;;;;;;;;;;5887491;28;20048;-79
2024/02/24 14:31:04;;;;;;;13.65;6.35;;;;;;;;;;5870239;28;20483;-79
2024/02/24 14:33:54;;;;;;;10.57;5.78;;;;;;;;;;5888672;28;20404;-79
2024/02/24 14:36:45;;;;;;;7.57;5.28;;;;;;;;;;5887819;28;20047;-79
2024/02/24 14:39:37;;;;;;;4.57;3.08;;;;;;;;;;5902259;28;20493;-79
2024/02/24 14:42:28;;;;;;;7.13;3.30;;;;;;;;;;5887292;28;20041;-80
2024/02/24 14:45:19;;;;;;;14.55;7.53;;;;;;;;;;5886645;28;20052;-79
2024/02/24 14:48:10;;;;;;;4.57;2.88;;;;;;;;;;5886474;28;20068;-79
2024/02/24 14:51:01;;;;;;;1.50;1.15;;;;;;;;;;5885944;28;20469;-80
2024/02/24 14:53:52;;;;;;;5.20;2.13;;;;;;;;;;5887644;28;20044;-79
2024/02/24 14:56:43;;;;;;;2.00;1.63;;;;;;;;;;5886000;28;20056;-80
2024/02/24 14:59:34;;;;;;;1.60;0.65;;;;;;;;;;5886614;28;20052;-79
2024/02/24 15:02:25;;;;;;;3.08;2.40;;;;;;;;;;5902466;28;20040;-79
2024/02/24 15:05:35;;;;;;;12.20;6.55;;;;;;;;;;5885877;28;20048;-79
2024/02/24 15:08:28;;;;;;;15.32;7.97;;;;;;;;;;5885063;28;20037;-79
2024/02/24 15:11:22;;;;;;;25.95;16.83;;;;;;;;;;5901417;28;20527;-80
2024/02/24 15:14:16;;;;;;;25.05;14.70;;;;;;;;;;5868836;28;20053;-79
2024/02/24 15:17:07;;;;;;;10.05;5.75;;;;;;;;;;5884722;28;20053;-80
2024/02/24 15:19:57;;;;;;;5.53;3.78;;;;;;;;;;5887209;28;20052;-79
2024/02/24 15:22:52;;;;;;;11.70;5.45;;;;;;;;;;5886159;28;20048;-80
2024/02/24 15:25:44;;;;;;;9.00;6.20;;;;;;;;;;5884855;28;20055;-79
2024/02/24 15:28:37;;;;;;;11.25;6.00;;;;;;;;;;5886017;28;20044;-80
2024/02/24 15:31:28;;;;;;;20.08;9.43;;;;;;;;;;5884418;28;20049;-79
2024/02/24 15:34:19;;;;;;;8.43;5.55;;;;;;;;;;5885896;28;20049;-80
2024/02/24 15:37:12;;;;;;;11.73;7.45;;;;;;;;;;5884414;28;20074;-80
2024/02/24 15:40:07;;;;;;;10.18;4.90;;;;;;;;;;5868041;28;20124;-79
2024/02/24 15:42:59;;;;;;;7.18;5.03;;;;;;;;;;5885043;28;20430;-80
2024/02/24 15:45:53;;;;;;;11.90;7.30;;;;;;;;;;5884445;28;20041;-80
2024/02/24 15:48:45;;;;;;;19.42;10.82;;;;;;;;;;5900624;28;20045;-80
2024/02/24 15:51:36;;;;;;;8.15;5.32;;;;;;;;;;5900500;28;20044;-80
2024/02/24 15:54:27;;;;;;;19.20;5.95;;;;;;;;;;5867861;28;20040;-79
2024/02/24 15:57:18;;;;;;;18.33;7.97;;;;;;;;;;5883975;28;20080;-79
2024/02/24 16:00:09;;;;;;;10.40;6.50;;;;;;;;;;5883954;28;20486;-79
2024/02/24 16:03:00;;;;;;;10.70;5.88;;;;;;;;;;5884423;28;20142;-79
2024/02/24 16:05:55;;;;;;;7.03;4.88;;;;;;;;;;5900183;28;20041;-80
2024/02/24 16:08:46;;;;;;;7.78;2.63;;;;;;;;;;5883987;28;20067;-79
2024/02/24 16:11:37;;;;;;;3.80;3.22;;;;;;;;;;5883611;28;20044;-79
2024/02/24 16:14:28;;;;;;;8.93;5.20;;;;;;;;;;5883847;28;20041;-79
2024/02/24 16:17:19;;;;;;;27.05;9.63;;;;;;;;;;5883536;28;20126;-79
2024/02/24 16:20:11;;;;;;;7.15;3.85;;;;;;;;;;5883559;28;20087;-79
2024/02/24 16:23:01;;;;;;;5.47;4.30;;;;;;;;;;5885427;28;20545;-79
2024/02/24 16:25:52;;;;;;;3.08;2.20;;;;;;;;;;5885937;28;20052;-79
2024/02/24 16:28:43;;;;;;;2.30;2.10;;;;;;;;;;5883381;28;20059;-79
2024/02/24 16:31:34;;;;;;;2.28;2.08;;;;;;;;;;5866847;28;20049;-79
2024/02/24 16:34:26;;;;;;;3.85;2.97;;;;;;;;;;5883419;28;20041;-79
2024/02/24 16:37:17;;;;;;;1.70;1.60;;;;;;;;;;5866972;28;20064;-79
2024/02/24 16:40:09;;;;;;;1.42;1.33;;;;;;;;;;5899561;28;20136;-79
2024/02/24 16:43:01;;;;;;;3.20;1.33;;;;;;;;;;5883954;28;20049;-79
2024/02/24 16:45:52;;;;;;;4.18;3.50;;;;;;;;;;5884080;28;20473;-79
2024/02/24 16:48:43;;;;;;;4.70;2.80;;;;;;;;;;5884618;28;20041;-79
2024/02/24 16:51:35;;;;;;;5.38;4.05;;;;;;;;;;5866778;28;20073;-79
2024/02/24 16:54:25;;;;;;;12.35;5.38;;;;;;;;;;5882831;28;20430;-79
2024/02/24 16:57:17;;;;;;;7.97;5.00;;;;;;;;;;5884515;28;20049;-79
2024/02/24 17:00:09;;;;;;;17.88;7.45;;;;;;;;;;5883434;28;20057;-79
2024/02/24 17:03:00;;;;;;;12.23;7.72;;;;;;;;;;5883827;28;20045;-79
2024/02/24 17:05:51;;;;;;;15.07;7.32;;;;;;;;;;5883556;28;20128;-79